Time;durP1;ratioP1;P1;durP2;ratioP2;P2;SDS_P1;SDS_P2;PMS_P1;PMS_P2;Temp;Humidity;BMP_temperature;BMP_pressure;BME280_temperature;BME280_humidity;BME280_pressure;Samples;Min_cycle;Max_cycle;Signal;HPM_P1;HPM_P2
2020/12/15 00:02:25;;;;;;;1.42;1.33;;;;;;;4.06;100.00;97972.81;5035886;28;20041;-90
2020/12/15 00:04:50;;;;;;;1.52;0.77;;;;;;;4.08;100.00;97968.34;5019998;28;20052;-89
2020/12/15 00:07:16;;;;;;;3.15;1.63;;;;;;;4.10;100.00;97979.72;5019989;28;20473;-90
2020/12/15 00:09:42;;;;;;;2.53;2.05;;;;;;;4.04;100.00;97964.03;5018489;28;20124;-90
2020/12/15 00:12:08;;;;;;;1.08;0.98;;;;;;;4.03;100.00;97962.31;5020153;28;20045;-89
2020/12/15 00:14:33;;;;;;;3.45;2.00;;;;;;;4.07;100.00;97969.22;5011525;28;20092;-90
2020/12/15 00:16:59;;;;;;;2.38;2.03;;;;;;;4.21;100.00;97980.28;5034945;28;20041;-90
2020/12/15 00:19:26;;;;;;;1.63;1.52;;;;;;;4.16;100.00;97979.53;5036146;28;20509;-90
2020/12/15 00:21:52;;;;;;;2.42;1.73;;;;;;;4.19;100.00;97987.41;5019914;28;20045;-89
2020/12/15 00:24:18;;;;;;;1.70;1.52;;;;;;;4.21;100.00;97986.47;5019793;28;20072;-89
2020/12/15 00:26:44;;;;;;;3.13;1.90;;;;;;;4.22;100.00;97989.94;5050149;28;20033;-90
2020/12/15 00:29:14;;;;;;;4.30;2.38;;;;;;;4.21;100.00;97975.00;5019923;28;20041;-91
2020/12/15 00:31:40;;;;;;;4.38;2.60;;;;;;;4.25;100.00;97984.56;5035663;28;20056;-90
2020/12/15 00:34:06;;;;;;;5.80;2.28;;;;;;;4.24;100.00;97985.50;5035698;28;20033;-90
2020/12/15 00:36:32;;;;;;;1.17;1.02;;;;;;;4.23;100.00;97971.38;5035818;28;20045;-90
2020/12/15 00:38:58;;;;;;;0.80;0.80;;;;;;;4.28;100.00;97971.22;5035772;28;20430;-90
2020/12/15 00:41:23;;;;;;;2.25;1.92;;;;;;;4.33;100.00;97982.56;5032086;28;20030;-91
2020/12/15 00:43:49;;;;;;;1.55;1.45;;;;;;;4.36;100.00;97977.19;5017284;28;20053;-91
2020/12/15 00:46:15;;;;;;;1.58;1.42;;;;;;;4.32;100.00;97964.94;5018723;28;20072;-90
2020/12/15 00:48:41;;;;;;;3.15;2.47;;;;;;;4.29;100.00;97967.69;5018551;28;20045;-90
2020/12/15 00:51:08;;;;;;;2.15;1.63;;;;;;;4.25;100.00;97961.63;5035200;28;20098;-92
2020/12/15 00:53:34;;;;;;;2.33;2.15;;;;;;;4.18;100.00;97967.16;5035408;28;20099;-91
2020/12/15 00:56:00;;;;;;;3.00;1.92;;;;;;;4.08;100.00;97960.38;5035010;28;20037;-91
2020/12/15 00:58:26;;;;;;;1.33;1.23;;;;;;;4.26;100.00;97973.06;5019034;28;20105;-90
2020/12/15 01:00:52;;;;;;;3.38;1.65;;;;;;;4.22;100.00;97961.69;5019200;28;20064;-89
2020/12/15 01:03:18;;;;;;;2.28;1.92;;;;;;;4.25;100.00;97964.25;5017875;28;20130;-89
2020/12/15 01:05:43;;;;;;;1.58;1.48;;;;;;;4.16;100.00;97961.03;5021545;28;20535;-90
2020/12/15 01:08:09;;;;;;;1.90;1.50;;;;;;;4.15;100.00;97969.91;5016113;28;20038;-90
2020/12/15 01:10:35;;;;;;;2.70;2.28;;;;;;;4.13;100.00;97966.41;5015075;28;20041;-90
2020/12/15 01:13:00;;;;;;;2.88;2.00;;;;;;;4.12;100.00;97964.69;5015283;28;20098;-89
2020/12/15 01:25:52;;;;;;;1.60;1.48;;;;;;;3.98;100.00;97938.63;4932007;28;20069;-90
2020/12/15 01:28:18;;;;;;;6.95;3.30;;;;;;;4.09;100.00;97959.50;5012164;28;20124;-90
2020/12/15 01:30:43;;;;;;;4.75;2.90;;;;;;;3.97;100.00;97957.22;5019305;28;20049;-89
2020/12/15 01:33:09;;;;;;;9.77;3.83;;;;;;;3.91;100.00;97952.09;5017873;28;20097;-90
2020/12/15 01:35:37;;;;;;;2.47;1.85;;;;;;;3.88;100.00;97949.53;5018196;28;20068;-91
2020/12/15 01:38:03;;;;;;;6.70;1.88;;;;;;;3.92;100.00;97959.09;5016031;28;20481;-92
2020/12/15 01:40:29;;;;;;;1.67;1.58;;;;;;;3.93;100.00;97966.13;5031617;28;20033;-92
2020/12/15 01:42:54;;;;;;;5.40;2.72;;;;;;;3.94;100.00;97970.53;5033780;28;20108;-92
2020/12/15 01:45:20;;;;;;;2.08;1.90;;;;;;;3.96;100.00;97966.91;5018179;28;20044;-88
2020/12/15 01:47:46;;;;;;;2.35;2.00;;;;;;;4.07;100.00;97979.81;5017556;28;20029;-89
2020/12/15 01:50:12;;;;;;;4.05;2.55;;;;;;;4.17;100.00;97976.00;5034889;28;20049;-89
2020/12/15 01:52:38;;;;;;;11.50;2.55;;;;;;;4.19;100.00;97982.97;5017588;28;20433;-90
2020/12/15 01:55:04;;;;;;;2.13;1.92;;;;;;;4.17;100.00;97976.00;5034127;28;20041;-92
2020/12/15 01:57:30;;;;;;;3.85;2.45;;;;;;;4.18;100.00;97977.75;5018089;28;20126;-90
2020/12/15 01:59:57;;;;;;;3.65;2.40;;;;;;;4.10;100.00;97969.16;5035297;28;20044;-90
2020/12/15 02:02:22;;;;;;;3.28;2.67;;;;;;;4.11;100.00;97982.34;5034127;28;20037;-90
2020/12/15 02:04:48;;;;;;;3.05;2.75;;;;;;;4.07;100.00;97978.03;5017177;28;20041;-90
2020/12/15 02:07:15;;;;;;;2.22;1.88;;;;;;;4.21;100.00;97982.94;5034453;28;20493;-90
2020/12/15 02:09:41;;;;;;;1.95;1.58;;;;;;;4.19;100.00;97976.81;5033826;28;20045;-90
2020/12/15 02:12:06;;;;;;;4.45;2.60;;;;;;;4.16;100.00;97975.13;5017963;28;20037;-90
2020/12/15 02:14:32;;;;;;;2.92;2.45;;;;;;;4.24;100.00;97975.78;5017959;28;20033;-91
2020/12/15 02:16:58;;;;;;;5.07;3.10;;;;;;;4.27;100.00;97983.63;5017187;28;20075;-91
2020/12/15 02:19:24;;;;;;;1.83;1.52;;;;;;;4.23;100.00;97981.09;5017899;28;20468;-91
2020/12/15 02:21:57;;;;;;;4.70;2.92;;;;;;;4.25;100.00;97980.16;5017182;28;20048;-90
2020/12/15 02:24:24;;;;;;;3.47;1.23;;;;;;;4.21;100.00;97981.16;5013880;28;20044;-90
2020/12/15 02:26:52;;;;;;;2.28;2.03;;;;;;;4.21;100.00;97972.34;5013196;28;20532;-90
2020/12/15 02:29:21;;;;;;;1.95;1.75;;;;;;;4.22;100.00;97974.94;5013870;28;20045;-89
2020/12/15 02:31:47;;;;;;;1.55;1.45;;;;;;;4.23;100.00;97973.16;5003368;28;20053;-90
2020/12/15 02:34:15;;;;;;;1.60;1.17;;;;;;;4.23;100.00;97965.22;4996893;28;20103;-90
2020/12/15 02:36:42;;;;;;;2.03;1.45;;;;;;;4.32;100.00;97980.81;5000346;28;20038;-90
2020/12/15 02:39:10;;;;;;;2.97;1.00;;;;;;;4.26;100.00;97966.00;5000720;28;20060;-89
2020/12/15 02:41:36;;;;;;;2.28;2.08;;;;;;;4.27;100.00;97974.81;4984138;28;20045;-89
2020/12/15 02:44:03;;;;;;;1.02;1.00;;;;;;;4.25;100.00;97979.28;5000513;28;20132;-90
2020/12/15 02:46:29;;;;;;;3.53;2.38;;;;;;;4.26;100.00;97978.38;5000884;28;20041;-90
2020/12/15 02:48:55;;;;;;;0.85;0.85;;;;;;;4.34;100.00;97979.88;5000468;28;20119;-89
2020/12/15 02:51:22;;;;;;;1.10;1.05;;;;;;;4.40;100.00;97981.44;4996857;28;20099;-90
2020/12/15 02:53:48;;;;;;;2.80;1.38;;;;;;;4.36;100.00;97982.47;5001348;28;20474;-89
2020/12/15 02:56:25;;;;;;;1.15;1.00;;;;;;;4.27;100.00;97980.13;4997426;28;20040;-90
2020/12/15 02:58:52;;;;;;;1.65;1.50;;;;;;;4.24;100.00;97991.66;5013618;28;20140;-89
2020/12/15 03:01:17;;;;;;;0.98;0.93;;;;;;;4.30;100.00;97986.19;5000181;28;20523;-90
2020/12/15 03:03:44;;;;;;;0.52;0.52;;;;;;;4.27;100.00;97977.47;5000533;28;20037;-90
2020/12/15 03:06:11;;;;;;;0.82;0.82;;;;;;;4.36;100.00;97977.19;4997342;28;20135;-89
2020/12/15 03:08:36;;;;;;;2.03;1.60;;;;;;;4.40;100.00;97989.41;5000388;28;20037;-91
2020/12/15 03:11:03;;;;;;;0.88;0.77;;;;;;;4.29;100.00;97979.16;5018006;28;20044;-89
2020/12/15 03:13:29;;;;;;;2.05;1.25;;;;;;;4.23;100.00;97995.22;5001232;28;20034;-89
2020/12/15 03:15:55;;;;;;;3.83;2.47;;;;;;;4.23;100.00;97999.63;5003559;28;20468;-89
2020/12/15 03:18:21;;;;;;;1.48;1.35;;;;;;;4.32;100.00;97996.72;5004651;28;20069;-90
2020/12/15 03:20:49;;;;;;;1.42;1.33;;;;;;;4.34;100.00;97994.88;5004929;28;20044;-90
2020/12/15 03:23:18;;;;;;;3.55;2.00;;;;;;;4.36;100.00;97993.94;5004106;28;20416;-88
2020/12/15 03:25:44;;;;;;;2.15;2.00;;;;;;;4.43;100.00;98005.19;5003400;28;20041;-90
2020/12/15 03:28:10;;;;;;;2.13;2.03;;;;;;;4.39;100.00;98000.94;5004234;28;20040;-91
2020/12/15 03:30:37;;;;;;;4.47;3.22;;;;;;;4.15;100.00;97989.25;5004478;28;20068;-91
2020/12/15 03:33:03;;;;;;;5.72;3.53;;;;;;;4.30;100.00;98009.16;5003407;28;20041;-91
2020/12/15 03:35:32;;;;;;;8.13;2.63;;;;;;;4.31;100.00;98013.50;5000406;28;20045;-89
2020/12/15 03:37:59;;;;;;;2.47;2.25;;;;;;;4.26;100.00;97999.53;4992353;28;20065;-90
2020/12/15 03:40:24;;;;;;;1.48;1.45;;;;;;;4.37;100.00;98016.84;5003062;28;20037;-89
2020/12/15 03:42:50;;;;;;;6.55;2.85;;;;;;;4.24;100.00;98007.56;5004471;28;20072;-90
2020/12/15 03:45:16;;;;;;;5.85;2.90;;;;;;;4.29;100.00;98015.34;5004577;28;20040;-89
2020/12/15 03:47:42;;;;;;;2.78;2.03;;;;;;;4.34;100.00;98021.34;5018408;28;20037;-89
2020/12/15 03:50:09;;;;;;;4.15;2.75;;;;;;;4.26;100.00;98016.31;5002912;28;20041;-89
2020/12/15 03:52:38;;;;;;;1.02;1.02;;;;;;;4.34;100.00;98021.34;5002754;28;20049;-90
2020/12/15 03:55:05;;;;;;;1.98;1.88;;;;;;;4.36;100.00;98022.19;5010828;28;20103;-88
2020/12/15 03:57:31;;;;;;;4.93;2.03;;;;;;;4.40;100.00;98026.47;5018994;28;20026;-89
2020/12/15 03:59:57;;;;;;;4.30;2.25;;;;;;;4.47;100.00;98037.75;5003104;28;20507;-89
2020/12/15 04:02:23;;;;;;;8.50;3.28;;;;;;;4.32;100.00;98018.78;5002548;28;20033;-91
2020/12/15 04:18:31;;;;;;;8.60;2.30;;;;;;;4.12;100.00;98021.13;4959357;28;20066;-90
2020/12/15 04:20:57;;;;;;;2.47;2.22;;;;;;;4.22;100.00;98029.66;4990151;28;20037;-90
2020/12/15 04:23:29;;;;;;;7.50;2.72;;;;;;;4.25;100.00;98032.22;5001199;28;20034;-90
2020/12/15 04:25:59;;;;;;;4.63;3.10;;;;;;;4.40;100.00;98044.16;5002648;28;20499;-90
2020/12/15 04:28:43;;;;;;;5.90;2.63;;;;;;;4.28;100.00;98032.13;5002706;28;20121;-90
2020/12/15 04:31:09;;;;;;;11.52;2.95;;;;;;;4.50;100.00;98058.84;5006031;28;20129;-90
2020/12/15 04:33:34;;;;;;;5.07;2.63;;;;;;;4.36;100.00;98046.91;5018948;28;20095;-89
2020/12/15 04:36:00;;;;;;;1.40;1.30;;;;;;;4.39;100.00;98048.59;5018266;28;20048;-90
2020/12/15 04:38:27;;;;;;;5.13;3.88;;;;;;;4.31;100.00;98037.34;5017803;28;20033;-90
2020/12/15 04:40:52;;;;;;;10.05;4.13;;;;;;;4.40;100.00;98047.66;5018849;28;20048;-89
2020/12/15 04:43:20;;;;;;;5.40;4.82;;;;;;;4.41;100.00;98046.75;5017150;28;20037;-89
2020/12/15 04:45:47;;;;;;;10.57;4.05;;;;;;;4.53;100.00;98067.56;5017801;28;20044;-90
2020/12/15 04:48:25;;;;;;;21.55;3.42;;;;;;;4.38;100.00;98046.84;5018062;28;20056;-88
2020/12/15 04:50:55;;;;;;;13.35;6.50;;;;;;;4.32;100.00;98024.06;5015574;28;20515;-82
2020/12/15 04:53:25;;;;;;;5.82;4.22;;;;;;;4.50;100.00;98057.06;5033059;28;20041;-80
2020/12/15 04:55:51;;;;;;;7.65;4.78;;;;;;;4.59;100.00;98069.16;5016243;28;20114;-79
2020/12/15 04:58:20;;;;;;;5.75;4.13;;;;;;;4.59;100.00;98070.03;5031389;28;20041;-81
2020/12/15 05:00:46;;;;;;;14.98;3.53;;;;;;;4.56;100.00;98070.13;5030570;28;20124;-79
2020/12/15 05:03:14;;;;;;;6.03;2.30;;;;;;;4.61;100.00;98073.53;5013957;28;20072;-83
2020/12/15 05:05:40;;;;;;;4.50;3.17;;;;;;;4.62;100.00;98083.19;5012293;28;20217;-81
2020/12/15 05:08:06;;;;;;;10.38;4.68;;;;;;;4.53;100.00;98067.56;5028278;28;20037;-86
2020/12/15 05:10:32;;;;;;;3.97;3.13;;;;;;;4.59;100.00;98077.13;5031036;28;20450;-80
2020/12/15 05:12:57;;;;;;;5.32;3.35;;;;;;;4.60;100.00;98073.56;5014685;28;20491;-83
2020/12/15 05:15:23;;;;;;;4.03;2.75;;;;;;;4.58;100.00;98078.94;5028575;28;20029;-84
2020/12/15 05:17:49;;;;;;;6.65;2.65;;;;;;;4.62;100.00;98084.97;5028277;28;20528;-84
2020/12/15 05:20:25;;;;;;;3.72;2.55;;;;;;;4.69;100.00;98081.22;5011808;28;20174;-83
2020/12/15 05:22:51;;;;;;;6.78;3.63;;;;;;;4.67;100.00;98088.38;5028965;28;20870;-84
2020/12/15 05:25:24;;;;;;;4.80;3.88;;;;;;;4.68;100.00;98090.97;5029096;28;20033;-83
2020/12/15 05:27:50;;;;;;;3.60;3.05;;;;;;;4.75;100.00;98095.16;5012513;28;20037;-83
2020/12/15 05:30:16;;;;;;;1.85;1.75;;;;;;;4.69;100.00;98087.41;5050727;28;20041;-88
2020/12/15 05:33:02;;;;;;;3.38;2.67;;;;;;;4.60;100.00;98061.19;5014451;28;20057;-87
2020/12/15 05:35:38;;;;;;;3.80;2.53;;;;;;;4.58;100.00;98065.69;5020722;28;20490;-88
2020/12/15 05:38:05;;;;;;;7.03;3.45;;;;;;;4.65;100.00;98077.81;5028290;28;20080;-83
2020/12/15 05:40:31;;;;;;;3.03;2.58;;;;;;;4.67;100.00;98073.34;5006764;28;20263;-88
2020/12/15 05:43:00;;;;;;;2.25;2.05;;;;;;;4.76;100.00;98085.44;5014525;28;20045;-87
2020/12/15 05:45:27;;;;;;;5.38;3.25;;;;;;;4.75;100.00;98081.94;5013747;28;20037;-87
2020/12/15 05:48:08;;;;;;;4.03;3.40;;;;;;;4.69;100.00;98090.06;5021571;28;20039;-90
2020/12/15 05:50:35;;;;;;;7.15;4.22;;;;;;;4.77;100.00;98079.22;5007385;28;20052;-89
2020/12/15 05:53:05;;;;;;;5.75;2.58;;;;;;;4.74;100.00;98082.81;5032756;28;20045;-90
2020/12/15 05:55:31;;;;;;;7.20;5.20;;;;;;;4.68;100.00;98074.19;5030275;28;20595;-81
2020/12/15 05:57:58;;;;;;;4.05;3.00;;;;;;;4.60;100.00;98082.38;5032217;28;20037;-88
2020/12/15 06:00:29;;;;;;;5.30;3.78;;;;;;;4.48;100.00;98072.16;5015409;28;20037;-87
2020/12/15 06:02:59;;;;;;;3.20;2.65;;;;;;;4.51;100.00;98072.06;5030973;28;20037;-81
2020/12/15 06:05:26;;;;;;;4.30;2.97;;;;;;;4.60;100.00;98082.38;5010173;28;20630;-81
2020/12/15 06:07:54;;;;;;;4.50;3.67;;;;;;;4.59;100.00;98087.72;5027233;28;20509;-82
2020/12/15 06:10:20;;;;;;;12.18;5.90;;;;;;;4.51;100.00;98090.59;5026686;28;20056;-80
2020/12/15 06:12:49;;;;;;;7.20;4.75;;;;;;;4.50;100.00;98080.91;5026810;28;20046;-80
2020/12/15 06:15:14;;;;;;;3.60;2.95;;;;;;;4.47;100.00;98075.69;5026720;28;20450;-80
2020/12/15 06:17:45;;;;;;;7.00;4.82;;;;;;;4.35;100.00;98068.13;5027075;28;20124;-81
2020/12/15 06:20:11;;;;;;;3.92;3.47;;;;;;;4.31;100.00;98069.09;5028584;28;20412;-83
2020/12/15 06:22:37;;;;;;;8.00;3.65;;;;;;;4.33;100.00;98081.41;5030993;28;20033;-92
2020/12/15 06:25:02;;;;;;;3.78;2.72;;;;;;;4.32;100.00;98082.31;5017026;28;20037;-90
2020/12/15 06:27:52;;;;;;;3.53;3.00;;;;;;;4.27;100.00;98089.53;5017571;28;20057;-91
2020/12/15 06:30:30;;;;;;;3.10;2.80;;;;;;;4.29;100.00;98086.84;5026962;28;20049;-84
2020/12/15 06:33:06;;;;;;;8.18;5.28;;;;;;;4.30;100.00;98078.84;4996400;28;20069;-83
2020/12/15 06:35:33;;;;;;;5.05;3.08;;;;;;;4.45;100.00;98077.53;5011105;28;20033;-81
2020/12/15 06:37:59;;;;;;;5.65;3.78;;;;;;;4.50;100.00;98077.38;4994469;28;20045;-83
2020/12/15 06:40:25;;;;;;;6.10;3.72;;;;;;;4.57;100.00;98090.41;4993768;28;20052;-82
2020/12/15 06:42:53;;;;;;;3.55;3.15;;;;;;;4.77;100.00;98080.09;4994079;28;20037;-85
2020/12/15 06:45:23;;;;;;;4.45;2.13;;;;;;;4.88;100.00;98091.25;5010506;28;20090;-81
2020/12/15 06:47:59;;;;;;;2.53;2.33;;;;;;;4.82;100.00;98087.91;5024396;28;20045;-82
2020/12/15 06:50:25;;;;;;;1.80;1.45;;;;;;;4.82;100.00;98091.44;4997214;28;20041;-82
2020/12/15 06:52:51;;;;;;;1.35;1.25;;;;;;;4.96;100.00;98074.22;5014112;28;20436;-83
2020/12/15 06:55:30;;;;;;;2.45;2.25;;;;;;;5.03;100.00;98081.06;5031665;28;20033;-79
2020/12/15 06:58:00;;;;;;;6.63;2.78;;;;;;;5.03;100.00;98087.25;4992283;28;20041;-80
2020/12/15 07:00:37;;;;;;;2.53;2.22;;;;;;;5.18;100.00;98080.56;5015098;28;20048;-84
2020/12/15 07:03:04;;;;;;;3.10;2.47;;;;;;;5.46;100.00;98092.03;5014462;28;20136;-78
2020/12/15 07:05:30;;;;;;;2.63;1.40;;;;;;;5.87;99.77;98088.03;4998185;28;20033;-79
2020/12/15 07:08:00;;;;;;;1.90;1.52;;;;;;;6.31;96.07;98089.09;4999551;28;20040;-80
2020/12/15 07:10:28;;;;;;;1.58;0.93;;;;;;;5.88;95.71;98093.25;5000305;28;20124;-83
2020/12/15 07:12:59;;;;;;;5.68;1.67;;;;;;;5.83;96.75;98097.84;5006142;28;20047;-87
2020/12/15 07:15:25;;;;;;;4.45;2.25;;;;;;;6.08;96.41;98102.34;5004349;28;20065;-85
2020/12/15 07:17:56;;;;;;;4.85;1.70;;;;;;;6.32;94.50;98101.44;5004613;28;20034;-84
2020/12/15 07:20:23;;;;;;;3.65;3.20;;;;;;;6.28;93.65;98106.00;5007952;28;20123;-87
2020/12/15 07:22:49;;;;;;;2.72;2.53;;;;;;;6.24;93.05;98090.25;5029594;28;20045;-87
2020/12/15 07:25:19;;;;;;;13.40;6.22;;;;;;;6.11;93.87;98054.41;5005780;28;20044;-87
2020/12/15 07:27:51;;;;;;;5.00;2.67;;;;;;;6.23;93.30;98059.28;5008809;28;20038;-87
2020/12/15 07:30:22;;;;;;;5.28;3.13;;;;;;;6.52;92.24;98077.69;4999474;28;20140;-84
2020/12/15 07:32:59;;;;;;;9.15;4.07;;;;;;;6.65;92.00;98097.53;5016476;28;20041;-81
2020/12/15 07:35:25;;;;;;;12.80;3.05;;;;;;;6.51;92.37;98098.06;5027722;28;20059;-83
2020/12/15 07:37:56;;;;;;;5.30;3.67;;;;;;;6.94;91.28;98126.56;5013520;28;20049;-82
2020/12/15 07:40:23;;;;;;;10.30;4.53;;;;;;;7.17;89.95;98130.97;5030325;28;20033;-82
2020/12/15 07:42:59;;;;;;;4.10;2.45;;;;;;;7.25;89.38;98126.25;5012535;28;20445;-83
2020/12/15 07:45:28;;;;;;;3.47;2.72;;;;;;;7.56;88.16;98131.22;5013422;28;20112;-82
2020/12/15 07:58:15;;;;;;;4.53;2.20;;;;;;;7.55;82.30;98142.78;4991679;28;20189;-87
2020/12/15 08:00:40;;;;;;;3.40;1.63;;;;;;;7.64;82.33;98147.72;4958522;28;20070;-83
2020/12/15 08:03:06;;;;;;;1.65;1.55;;;;;;;7.89;82.11;98156.44;4975293;28;20168;-84
2020/12/15 08:05:32;;;;;;;14.35;2.45;;;;;;;7.78;82.26;98139.19;4997649;28;20325;-86
2020/12/15 08:08:03;;;;;;;2.72;2.45;;;;;;;7.80;80.71;98153.28;4980152;28;20038;-84
2020/12/15 08:10:42;;;;;;;1.75;1.48;;;;;;;7.77;81.64;98153.41;4976891;28;20394;-84
2020/12/15 08:13:13;;;;;;;2.03;1.70;;;;;;;6.84;82.63;98106.56;4993332;28;20042;-84
2020/12/15 08:15:41;;;;;;;7.57;2.97;;;;;;;7.31;86.34;98165.91;5005087;28;20041;-84
2020/12/15 08:18:08;;;;;;;5.15;3.65;;;;;;;7.13;87.04;98150.66;5031572;28;20053;-85
2020/12/15 08:20:35;;;;;;;2.53;2.22;;;;;;;7.14;86.25;98168.34;5032663;28;20033;-83
2020/12/15 08:23:09;;;;;;;3.30;1.80;;;;;;;7.19;87.32;98170.84;5031369;28;20037;-84
2020/12/15 08:25:43;;;;;;;5.70;2.50;;;;;;;7.41;87.65;98171.75;5015176;28;20041;-80
2020/12/15 08:28:13;;;;;;;14.40;4.45;;;;;;;7.44;85.91;98176.94;5025785;28;20030;-83
2020/12/15 08:30:56;;;;;;;8.35;2.92;;;;;;;7.29;84.97;98174.88;5023282;28;20472;-91
2020/12/15 08:33:25;;;;;;;3.72;2.90;;;;;;;7.47;85.13;98177.72;5033138;28;20060;-89
2020/12/15 08:35:56;;;;;;;11.80;5.35;;;;;;;7.66;83.73;98166.31;5027465;28;20476;-82
2020/12/15 08:38:25;;;;;;;14.70;6.45;;;;;;;7.82;82.71;98176.25;5019687;28;20041;-84
2020/12/15 08:41:32;;;;;;;7.63;2.50;;;;;;;7.55;83.51;98148.97;5022510;28;20123;-88
2020/12/15 08:44:34;;;;;;;;;;;;;;;;;;;;;
2020/12/15 08:51:12;;;;;;;;;;;;;;;;;;;;;
2020/12/15 09:01:02;;;;;;;12.65;4.13;;;;;;;8.24;81.08;98186.06;5006195;28;20108;-88
2020/12/15 09:03:54;;;;;;;10.55;4.25;;;;;;;8.68;78.87;98179.69;4990595;28;20528;-88
2020/12/15 09:06:50;;;;;;;;;;;;;;;;;;;;;
2020/12/15 09:09:38;;;;;;;5.72;4.88;;;;;;;8.72;76.16;98103.97;4995052;28;20046;-89
2020/12/15 09:12:11;;;;;;;11.00;4.35;;;;;;;9.75;72.77;98176.47;5013450;28;20029;-87
2020/12/15 09:14:37;;;;;;;7.35;6.03;;;;;;;10.95;68.80;98170.34;5015419;28;20103;-88
2020/12/15 09:17:03;;;;;;;6.50;4.22;;;;;;;11.46;65.37;98177.34;5017968;28;20076;-88
2020/12/15 09:19:29;;;;;;;8.23;3.83;;;;;;;11.42;65.37;98171.28;5037105;28;20064;-89
2020/12/15 09:21:59;;;;;;;5.97;3.47;;;;;;;11.32;66.82;98175.44;5020068;28;20037;-89
2020/12/15 09:24:25;;;;;;;9.70;5.85;;;;;;;10.57;68.62;98181.25;5032962;28;20037;-90
2020/12/15 09:26:50;;;;;;;7.88;3.92;;;;;;;10.29;70.84;98175.56;5019777;28;20043;-89
2020/12/15 09:29:16;;;;;;;6.25;3.42;;;;;;;9.48;72.96;98165.31;5018469;28;20041;-88
2020/12/15 09:31:43;;;;;;;1.77;1.27;;;;;;;8.98;76.73;98169.47;5032198;28;20049;-88
2020/12/15 09:34:08;;;;;;;2.88;2.10;;;;;;;8.51;77.97;98174.25;5032089;28;20335;-88
2020/12/15 09:36:34;;;;;;;5.30;3.97;;;;;;;8.15;79.21;98176.69;5016357;28;20102;-88
2020/12/15 09:39:00;;;;;;;1.52;1.23;;;;;;;7.63;82.29;98161.97;5016742;28;20083;-88
2020/12/15 09:41:26;;;;;;;4.80;2.90;;;;;;;7.75;82.57;98161.50;5016130;28;20037;-88
2020/12/15 09:43:52;;;;;;;4.60;3.17;;;;;;;8.33;81.53;98175.06;5015901;28;20030;-88
2020/12/15 09:46:18;;;;;;;2.60;2.13;;;;;;;8.64;79.43;98165.63;5016212;28;20480;-87
2020/12/15 09:48:44;;;;;;;1.75;1.15;;;;;;;8.83;77.76;98163.00;5016256;28;20080;-88
2020/12/15 09:51:13;;;;;;;5.40;2.78;;;;;;;9.36;74.13;98165.00;5015786;28;20045;-89
2020/12/15 09:53:40;;;;;;;4.25;2.47;;;;;;;10.13;71.22;98174.56;5013970;28;20045;-89
2020/12/15 09:56:05;;;;;;;1.20;0.90;;;;;;;11.50;67.20;98169.06;5014811;28;20496;-88
2020/12/15 09:58:32;;;;;;;2.85;1.92;;;;;;;11.35;66.00;98172.59;5028508;28;20075;-90
2020/12/15 10:01:04;;;;;;;3.13;1.30;;;;;;;12.10;63.19;98175.44;5016013;28;20096;-89
2020/12/15 10:03:29;;;;;;;5.30;3.17;;;;;;;12.70;60.56;98165.59;5011949;28;20026;-88
2020/12/15 10:05:55;;;;;;;6.40;2.97;;;;;;;13.02;59.96;98161.78;5015481;28;20120;-89
2020/12/15 10:08:21;;;;;;;6.05;2.17;;;;;;;12.99;59.67;98162.00;5011971;28;20126;-89
2020/12/15 10:10:50;;;;;;;3.60;1.55;;;;;;;14.03;54.91;98161.59;5009452;28;20472;-88
2020/12/15 10:13:16;;;;;;;3.95;1.65;;;;;;;13.82;54.81;98153.09;5031690;28;20029;-89
2020/12/15 10:15:42;;;;;;;3.08;1.13;;;;;;;13.33;57.36;98165.28;5015084;28;20065;-90
2020/12/15 10:18:09;;;;;;;2.38;1.88;;;;;;;12.95;58.52;98160.44;5000500;28;20080;-91
2020/12/15 10:20:36;;;;;;;7.93;2.13;;;;;;;13.73;56.69;98161.78;5012134;28;20100;-90
2020/12/15 10:23:01;;;;;;;1.33;1.02;;;;;;;13.93;55.53;98163.19;5030746;28;20421;-85
2020/12/15 10:25:27;;;;;;;2.97;1.15;;;;;;;13.08;57.49;98155.22;5039908;28;20112;-82
2020/12/15 10:27:53;;;;;;;5.05;1.92;;;;;;;13.20;57.83;98146.38;5033821;28;20513;-87
2020/12/15 10:30:18;;;;;;;15.05;7.13;;;;;;;12.55;60.73;98157.63;5031105;28;20041;-85
2020/12/15 10:32:44;;;;;;;8.35;5.43;;;;;;;12.30;61.92;98142.97;5013160;28;20569;-85
2020/12/15 10:35:10;;;;;;;11.55;3.85;;;;;;;11.82;63.28;98152.03;5029944;28;20386;-88
2020/12/15 10:37:35;;;;;;;6.35;3.05;;;;;;;11.87;64.54;98152.63;5008974;28;20059;-88
2020/12/15 10:40:03;;;;;;;4.90;3.42;;;;;;;12.00;63.11;98141.22;5014315;28;20057;-86
2020/12/15 10:42:29;;;;;;;6.95;3.78;;;;;;;12.62;62.39;98146.41;5012468;28;20071;-87
2020/12/15 10:44:55;;;;;;;6.50;4.18;;;;;;;12.35;61.40;98146.25;5013624;28;20444;-87
2020/12/15 10:47:21;;;;;;;5.80;3.30;;;;;;;11.87;62.49;98135.72;5014484;28;20417;-88
2020/12/15 10:49:46;;;;;;;2.90;2.35;;;;;;;11.92;62.96;98145.22;5014129;28;20044;-88
2020/12/15 10:52:12;;;;;;;8.15;3.33;;;;;;;11.80;64.59;98128.97;5030521;28;20069;-88
2020/12/15 10:54:39;;;;;;;11.02;4.47;;;;;;;12.02;63.86;98121.41;5014088;28;20095;-88
2020/12/15 10:57:05;;;;;;;11.68;3.78;;;;;;;11.99;62.53;98124.28;5004955;28;20038;-87
2020/12/15 10:59:31;;;;;;;2.40;1.83;;;;;;;11.53;64.51;98131.38;5012952;28;20044;-87
2020/12/15 11:01:56;;;;;;;5.53;3.35;;;;;;;11.47;64.49;98128.19;5008072;28;20033;-87
2020/12/15 11:04:22;;;;;;;2.55;1.60;;;;;;;12.55;63.29;98115.50;5013671;28;20136;-87
2020/12/15 11:06:48;;;;;;;5.43;2.90;;;;;;;14.00;56.72;98111.56;5030276;28;20043;-87
2020/12/15 11:09:14;;;;;;;2.65;2.13;;;;;;;14.25;55.48;98108.06;5013859;28;20029;-86
2020/12/15 11:11:45;;;;;;;2.60;2.03;;;;;;;14.84;53.54;98105.81;5010308;28;20042;-86
2020/12/15 11:14:11;;;;;;;5.10;1.92;;;;;;;16.26;49.95;98109.69;5041011;28;20043;-86
2020/12/15 11:16:37;;;;;;;9.20;3.05;;;;;;;17.80;44.64;98106.50;5011094;28;20076;-88
2020/12/15 11:19:03;;;;;;;3.78;2.22;;;;;;;18.94;42.55;98119.34;5030314;28;20037;-87
2020/12/15 11:21:29;;;;;;;4.18;1.88;;;;;;;17.80;43.85;98109.19;5013057;28;20037;-88
2020/12/15 11:23:54;;;;;;;3.92;1.73;;;;;;;17.70;43.80;98111.78;5013689;28;20037;-87
2020/12/15 11:26:20;;;;;;;4.10;2.05;;;;;;;17.64;44.95;98120.41;5010596;28;20038;-87
2020/12/15 11:28:46;;;;;;;2.58;2.03;;;;;;;16.61;46.20;98106.19;5011255;28;20423;-87
2020/12/15 11:31:12;;;;;;;4.07;2.33;;;;;;;15.11;50.45;98109.25;5029479;28;20524;-88
2020/12/15 11:33:39;;;;;;;4.95;2.75;;;;;;;13.99;52.71;98093.72;5014662;28;20047;-86
2020/12/15 11:48:48;;;;;;;3.22;2.15;;;;;;;11.75;63.96;98083.66;5166894;27;20119;-88
2020/12/15 11:51:21;;;;;;;4.53;2.72;;;;;;;11.25;66.41;98083.84;5120113;28;20085;-87
2020/12/15 11:53:49;;;;;;;7.00;3.00;;;;;;;10.72;67.74;98072.53;5111748;28;20030;-87
2020/12/15 11:56:34;;;;;;;4.85;2.33;;;;;;;10.31;70.37;98039.97;5100336;28;20534;-88
2020/12/15 11:59:03;;;;;;;3.20;1.75;;;;;;;10.11;72.47;98066.88;5099214;28;20124;-89
2020/12/15 12:01:29;;;;;;;3.00;1.92;;;;;;;9.93;73.99;98074.03;5094037;28;20047;-88
2020/12/15 12:03:58;;;;;;;7.97;4.85;;;;;;;9.44;73.93;98053.41;5118627;28;20031;-87
2020/12/15 12:06:30;;;;;;;15.10;1.80;;;;;;;9.03;76.27;98044.72;5135408;28;20031;-88
2020/12/15 12:08:56;;;;;;;5.45;2.75;;;;;;;9.17;76.99;98080.47;5117785;28;20485;-87
2020/12/15 12:11:27;;;;;;;2.58;2.17;;;;;;;8.98;78.10;98081.44;5120313;28;20039;-87
2020/12/15 12:13:54;;;;;;;6.30;4.05;;;;;;;8.88;79.40;98074.78;5114894;28;20084;-88
2020/12/15 12:16:19;;;;;;;5.40;2.90;;;;;;;9.09;78.80;98104.00;5114179;28;20031;-88
2020/12/15 12:18:45;;;;;;;4.22;2.70;;;;;;;9.11;78.96;98090.56;5114441;28;20103;-88
2020/12/15 12:21:11;;;;;;;3.75;2.97;;;;;;;9.04;79.78;98092.69;5114310;28;20494;-88
2020/12/15 12:23:39;;;;;;;11.65;2.78;;;;;;;8.94;78.08;98103.84;5116317;28;20032;-88
2020/12/15 12:26:05;;;;;;;10.48;4.88;;;;;;;9.02;78.57;98099.88;5112377;28;20028;-87
2020/12/15 12:28:39;;;;;;;4.40;3.45;;;;;;;9.05;79.35;98089.06;5114086;28;20091;-87
2020/12/15 12:31:05;;;;;;;7.57;3.47;;;;;;;8.99;80.39;98091.16;5115800;28;20041;-88
2020/12/15 12:33:30;;;;;;;4.55;3.47;;;;;;;8.84;80.81;98098.06;5115916;28;20027;-88
2020/12/15 12:35:56;;;;;;;5.93;2.95;;;;;;;8.80;81.18;98088.47;5114755;28;20109;-87
2020/12/15 12:38:22;;;;;;;5.88;3.58;;;;;;;8.89;81.93;98089.88;5115164;28;20059;-86
2020/12/15 12:40:48;;;;;;;3.15;1.85;;;;;;;8.82;81.20;98078.63;5116297;28;20114;-88
2020/12/15 12:43:15;;;;;;;4.43;2.08;;;;;;;8.89;80.28;98085.38;5120069;28;20023;-87